createdAt,value
2019-03-02T00:00:20.363Z,24.20
2019-03-02T00:01:20.544Z,22.30
2019-03-02T00:02:24.226Z,22.10
2019-03-02T00:03:20.892Z,23.80
2019-03-02T00:04:21.059Z,21.20
2019-03-02T00:05:24.265Z,21.70
2019-03-02T00:06:21.411Z,21.00
2019-03-02T00:07:21.586Z,24.10
2019-03-02T00:08:24.907Z,22.70
2019-03-02T00:09:21.926Z,22.10
2019-03-02T00:10:23.845Z,21.00
2019-03-02T00:11:22.274Z,19.60
2019-03-02T00:12:22.449Z,23.30
2019-03-02T00:13:22.618Z,23.60
2019-03-02T00:14:22.792Z,24.20
2019-03-02T00:15:22.961Z,22.40
2019-03-02T00:16:23.131Z,19.60
2019-03-02T00:17:23.320Z,25.10
2019-03-02T00:18:25.829Z,21.30
2019-03-02T00:19:23.659Z,22.30
2019-03-02T00:20:23.842Z,23.60
2019-03-02T00:21:24.010Z,21.60
2019-03-02T00:22:24.180Z,27.40
2019-03-02T00:23:24.402Z,23.10
2019-03-02T00:24:24.577Z,22.20
2019-03-02T00:25:24.767Z,21.70
2019-03-02T00:26:24.945Z,22.80
2019-03-02T00:27:25.120Z,21.00
2019-03-02T00:28:25.281Z,23.50
2019-03-02T00:29:25.501Z,21.80
2019-03-02T00:30:25.632Z,21.60
2019-03-02T00:31:25.809Z,25.70
2019-03-02T00:32:25.993Z,22.20
2019-03-02T00:33:26.159Z,22.30
2019-03-02T00:34:28.779Z,25.40
2019-03-02T00:35:26.519Z,23.40
2019-03-02T00:36:26.687Z,23.60
2019-03-02T00:37:29.603Z,24.30
2019-03-02T00:38:27.025Z,22.70
2019-03-02T00:39:27.209Z,20.90
2019-03-02T00:40:30.411Z,22.50
2019-03-02T00:41:27.559Z,21.30
2019-03-02T00:42:27.724Z,21.80
2019-03-02T00:43:28.049Z,20.70
2019-03-02T00:44:28.059Z,22.00
2019-03-02T00:45:28.238Z,24.40
2019-03-02T00:46:28.420Z,23.20
2019-03-02T00:47:31.758Z,22.10
2019-03-02T00:48:28.761Z,22.80
2019-03-02T00:49:28.928Z,23.00
2019-03-02T00:50:29.112Z,22.90
2019-03-02T00:51:29.306Z,22.50
2019-03-02T00:52:29.449Z,20.80
2019-03-02T00:53:31.896Z,22.90
2019-03-02T00:54:29.818Z,20.50
2019-03-02T00:55:31.842Z,23.20
2019-03-02T00:56:30.152Z,21.70
2019-03-02T00:57:30.330Z,23.50
2019-03-02T00:58:30.505Z,22.90
2019-03-02T00:59:30.689Z,22.60
2019-03-02T01:00:30.854Z,26.80
2019-03-02T01:01:31.028Z,22.80
2019-03-02T01:02:31.196Z,23.90
2019-03-02T01:03:31.369Z,23.70
2019-03-02T01:04:31.541Z,22.90
2019-03-02T01:05:33.496Z,23.70
2019-03-02T01:06:31.889Z,23.70
2019-03-02T01:07:32.061Z,23.00
2019-03-02T01:08:35.061Z,23.80
2019-03-02T01:09:32.407Z,21.60
2019-03-02T01:10:32.580Z,22.80
2019-03-02T01:11:33.930Z,21.10
2019-03-02T01:12:32.922Z,22.00
2019-03-02T01:13:33.097Z,22.90
2019-03-02T01:14:33.271Z,23.30
2019-03-02T01:15:33.443Z,23.50
2019-03-02T01:16:33.621Z,21.50
2019-03-02T01:17:33.795Z,23.60
2019-03-02T01:18:33.963Z,22.60
2019-03-02T01:19:34.136Z,23.30
2019-03-02T01:20:34.323Z,23.90
2019-03-02T01:21:37.528Z,22.00
2019-03-02T01:22:34.648Z,23.00
2019-03-02T01:23:34.812Z,21.90
2019-03-02T01:24:35.638Z,23.80
2019-03-02T01:25:35.170Z,22.00
2019-03-02T01:26:35.350Z,22.10
2019-03-02T01:27:35.788Z,22.40
2019-03-02T01:28:35.684Z,23.70
2019-03-02T01:29:35.849Z,21.70
2019-03-02T01:30:36.034Z,21.20
2019-03-02T01:31:36.744Z,22.50
2019-03-02T01:32:36.373Z,23.70
2019-03-02T01:33:36.556Z,23.10
2019-03-02T01:34:38.816Z,24.20
2019-03-02T01:35:36.887Z,24.30
2019-03-02T01:36:37.061Z,21.70
2019-03-02T01:37:40.089Z,23.30
2019-03-02T01:38:37.412Z,21.90
2019-03-02T01:39:37.586Z,21.50
2019-03-02T01:40:40.560Z,22.60
2019-03-02T01:41:37.943Z,21.60
2019-03-02T01:42:38.110Z,26.60
2019-03-02T01:43:40.484Z,25.60
2019-03-02T01:44:38.458Z,24.20
2019-03-02T01:45:38.631Z,25.00
2019-03-02T01:46:40.893Z,25.90
2019-03-02T01:47:38.978Z,28.70
2019-03-02T01:48:39.151Z,29.80
2019-03-02T01:49:39.334Z,30.50
2019-03-02T01:50:39.498Z,34.20
2019-03-02T01:51:39.679Z,33.10
2019-03-02T01:52:39.859Z,33.10
2019-03-02T01:53:41.806Z,30.40
2019-03-02T01:54:40.190Z,34.60
2019-03-02T01:55:40.366Z,32.10
2019-03-02T01:56:41.402Z,34.10
2019-03-02T01:57:40.715Z,32.70
2019-03-02T01:58:40.891Z,33.30
2019-03-02T01:59:41.075Z,33.70
2019-03-02T02:00:41.255Z,31.70
2019-03-02T02:01:41.407Z,32.50
2019-03-02T02:02:41.576Z,33.20
2019-03-02T02:03:43.693Z,32.10
2019-03-02T02:04:41.929Z,32.00
2019-03-02T02:05:42.102Z,35.10
2019-03-02T02:06:42.791Z,34.00
2019-03-02T02:07:42.437Z,29.70
2019-03-02T02:08:42.611Z,32.20
2019-03-02T02:09:42.784Z,32.90
2019-03-02T02:10:43.459Z,30.90
2019-03-02T02:11:43.131Z,31.70
2019-03-02T02:12:43.300Z,31.80
2019-03-02T02:13:43.988Z,33.40
2019-03-02T02:14:43.645Z,32.10
2019-03-02T02:15:43.814Z,30.00
2019-03-02T02:16:43.996Z,31.30
2019-03-02T02:17:44.163Z,33.00
2019-03-02T02:18:44.337Z,34.40
2019-03-02T02:19:44.505Z,33.10
2019-03-02T02:20:46.915Z,31.20
2019-03-02T02:21:44.857Z,29.70
2019-03-02T02:22:45.028Z,29.60
2019-03-02T02:23:45.733Z,30.70
2019-03-02T02:24:45.359Z,31.10
2019-03-02T02:25:45.533Z,31.10
2019-03-02T02:26:46.878Z,32.70
2019-03-02T02:27:45.876Z,28.60
2019-03-02T02:28:46.056Z,31.10
2019-03-02T02:29:46.225Z,29.90
2019-03-02T02:30:46.397Z,30.50
2019-03-02T02:31:46.595Z,28.40
2019-03-02T02:32:46.746Z,29.60
2019-03-02T02:33:46.918Z,30.80
2019-03-02T02:34:47.094Z,29.30
2019-03-02T02:35:47.265Z,32.20
2019-03-02T02:36:47.447Z,29.90
2019-03-02T02:37:47.621Z,31.40
2019-03-02T02:38:53.959Z,30.20
2019-03-02T02:39:47.973Z,27.70
2019-03-02T02:40:48.131Z,28.90
2019-03-02T02:41:48.309Z,30.00
2019-03-02T02:42:48.481Z,32.70
2019-03-02T02:43:48.673Z,33.20
2019-03-02T02:44:48.829Z,31.10
2019-03-02T02:45:53.460Z,32.30
2019-03-02T02:46:49.176Z,30.80
2019-03-02T02:47:51.658Z,28.50
2019-03-02T02:48:49.520Z,32.30
2019-03-02T02:49:51.094Z,29.80
2019-03-02T02:50:49.870Z,30.00
2019-03-02T02:51:50.448Z,32.40
2019-03-02T02:52:50.213Z,32.30
2019-03-02T02:53:50.384Z,29.40
2019-03-02T02:54:50.565Z,30.80
2019-03-02T02:55:50.742Z,31.40
2019-03-02T02:56:54.119Z,30.70
2019-03-02T02:57:51.078Z,32.80
2019-03-02T02:58:55.312Z,30.50
2019-03-02T02:59:51.423Z,28.80
2019-03-02T03:00:55.309Z,30.40
2019-03-02T03:01:51.769Z,30.10
2019-03-02T03:02:51.943Z,32.70
2019-03-02T03:03:54.833Z,30.20
2019-03-02T03:04:52.297Z,31.90
2019-03-02T03:05:53.946Z,29.00
2019-03-02T03:06:52.623Z,31.60
2019-03-02T03:07:55.348Z,30.00
2019-03-02T03:08:52.957Z,33.10
2019-03-02T03:09:53.136Z,29.40
2019-03-02T03:10:53.304Z,29.50
2019-03-02T03:11:53.469Z,31.60
2019-03-02T03:12:56.818Z,31.90
2019-03-02T03:13:53.808Z,30.70
2019-03-02T03:14:57.940Z,28.70
2019-03-02T03:15:54.163Z,28.30
2019-03-02T03:16:55.572Z,29.90
2019-03-02T03:17:54.512Z,28.90
2019-03-02T03:18:54.689Z,28.70
2019-03-02T03:19:54.863Z,28.00
2019-03-02T03:20:55.039Z,26.50
2019-03-02T03:21:55.201Z,28.60
2019-03-02T03:22:55.372Z,27.60
2019-03-02T03:24:02.773Z,27.10
2019-03-02T03:24:55.726Z,27.50
2019-03-02T03:25:58.496Z,23.90
2019-03-02T03:26:56.080Z,26.30
2019-03-02T03:27:56.256Z,25.80
2019-03-02T03:28:56.433Z,25.40
2019-03-02T03:29:56.612Z,25.20
2019-03-02T03:30:56.786Z,24.70
2019-03-02T03:32:07.662Z,27.00
2019-03-02T03:32:59.697Z,25.60
2019-03-02T03:33:57.313Z,25.70
2019-03-02T03:34:57.497Z,26.90
2019-03-02T03:35:57.797Z,23.90
2019-03-02T03:36:57.816Z,26.00
2019-03-02T03:37:58.021Z,24.90
2019-03-02T03:39:02.694Z,23.40
2019-03-02T03:39:58.339Z,24.10
2019-03-02T03:41:00.184Z,24.70
2019-03-02T03:41:58.674Z,23.80
2019-03-02T03:43:03.313Z,22.50
2019-03-02T03:43:59.012Z,22.80
2019-03-02T03:44:59.910Z,28.80
2019-03-02T03:45:59.382Z,22.50
2019-03-02T03:47:00.629Z,21.30
2019-03-02T03:47:59.697Z,24.40
2019-03-02T03:48:59.868Z,24.80
2019-03-02T03:50:00.043Z,23.80
2019-03-02T03:51:00.213Z,23.20
2019-03-02T03:52:04.172Z,23.80
2019-03-02T03:53:00.559Z,25.90
2019-03-02T03:54:01.555Z,21.80
2019-03-02T03:55:00.887Z,23.00
2019-03-02T03:56:04.181Z,21.70
2019-03-02T03:57:01.240Z,21.30
2019-03-02T03:58:02.611Z,23.20
2019-03-02T03:59:01.589Z,21.20
2019-03-02T04:00:01.768Z,23.00
2019-03-02T04:01:01.954Z,24.30
2019-03-02T04:02:02.107Z,21.30
2019-03-02T04:03:02.280Z,21.80
2019-03-02T04:04:02.454Z,22.80
2019-03-02T04:05:07.420Z,21.60
2019-03-02T04:06:02.795Z,23.80
2019-03-02T04:07:06.408Z,25.50
2019-03-02T04:08:03.133Z,22.50
2019-03-02T04:09:08.363Z,24.50
2019-03-02T04:10:03.474Z,21.40
2019-03-02T04:11:04.574Z,26.00
2019-03-02T04:12:06.303Z,23.50
2019-03-02T04:13:05.305Z,23.60
2019-03-02T04:14:04.160Z,23.30
2019-03-02T04:15:04.337Z,24.90
2019-03-02T04:16:04.524Z,25.20
2019-03-02T04:17:04.676Z,23.10
2019-03-02T04:18:04.858Z,23.90
2019-03-02T04:19:05.027Z,23.40
2019-03-02T04:20:08.152Z,26.00
2019-03-02T04:21:05.371Z,23.40
2019-03-02T04:22:06.565Z,25.00
2019-03-02T04:23:05.717Z,24.70
2019-03-02T04:24:05.925Z,23.10
2019-03-02T04:25:06.076Z,26.00
2019-03-02T04:26:06.246Z,27.20
2019-03-02T04:27:06.421Z,29.70
2019-03-02T04:28:06.584Z,27.60
2019-03-02T04:29:09.878Z,28.20
2019-03-02T04:30:06.938Z,31.20
2019-03-02T04:31:09.099Z,28.60
2019-03-02T04:32:07.293Z,27.90
2019-03-02T04:33:07.635Z,28.30
2019-03-02T04:34:07.633Z,29.70
2019-03-02T04:35:07.814Z,28.50
2019-03-02T04:36:10.230Z,30.00
2019-03-02T04:37:08.164Z,30.90
2019-03-02T04:38:08.321Z,32.40
2019-03-02T04:39:09.639Z,32.20
2019-03-02T04:40:08.687Z,30.60
2019-03-02T04:41:08.839Z,30.20
2019-03-02T04:42:11.694Z,32.10
2019-03-02T04:43:09.193Z,30.00
2019-03-02T04:44:09.360Z,31.60
2019-03-02T04:45:09.544Z,32.10
2019-03-02T04:46:11.734Z,31.40
2019-03-02T04:47:09.891Z,30.30
2019-03-02T04:48:10.059Z,31.40
2019-03-02T04:49:10.854Z,30.10
2019-03-02T04:50:10.405Z,31.40
2019-03-02T04:51:10.579Z,28.10
2019-03-02T04:52:11.504Z,29.70
2019-03-02T04:53:10.926Z,30.60
2019-03-02T04:54:11.096Z,29.60
2019-03-02T04:55:13.477Z,30.80
2019-03-02T04:56:11.449Z,30.30
2019-03-02T04:57:11.638Z,31.50
2019-03-02T04:58:12.857Z,31.80
2019-03-02T04:59:11.974Z,29.30
2019-03-02T05:00:12.143Z,30.70
2019-03-02T05:01:12.316Z,31.10
2019-03-02T05:02:12.493Z,35.20
2019-03-02T05:03:12.713Z,32.50
2019-03-02T05:04:12.830Z,29.90
2019-03-02T05:05:13.003Z,32.60
2019-03-02T05:06:15.620Z,33.20
2019-03-02T05:07:13.349Z,32.80
2019-03-02T05:08:13.523Z,30.40
2019-03-02T05:09:17.070Z,31.60
2019-03-02T05:10:13.876Z,32.10
2019-03-02T05:11:14.044Z,32.40
2019-03-02T05:12:14.601Z,30.80
2019-03-02T05:13:14.387Z,30.00
2019-03-02T05:14:14.551Z,32.10
2019-03-02T05:15:16.005Z,32.40
2019-03-02T05:16:14.901Z,31.60
2019-03-02T05:17:15.066Z,33.00
2019-03-02T05:18:18.128Z,29.80
2019-03-02T05:19:15.397Z,32.20
2019-03-02T05:20:15.574Z,30.80
2019-03-02T05:21:15.761Z,30.40
2019-03-02T05:22:18.816Z,29.70
2019-03-02T05:23:16.096Z,30.40
2019-03-02T05:24:16.273Z,31.30
2019-03-02T05:25:19.078Z,31.50
2019-03-02T05:26:16.619Z,33.30
2019-03-02T05:27:16.797Z,33.60
2019-03-02T05:28:16.965Z,32.70
2019-03-02T05:29:17.694Z,31.10
2019-03-02T05:30:17.310Z,30.60
2019-03-02T05:31:17.489Z,34.20
2019-03-02T05:32:19.596Z,32.40
2019-03-02T05:33:17.837Z,32.90
2019-03-02T05:34:18.016Z,31.70
2019-03-02T05:35:18.187Z,32.10
2019-03-02T05:36:18.376Z,31.70
2019-03-02T05:37:18.525Z,33.60
2019-03-02T05:38:18.703Z,33.90
2019-03-02T05:39:18.879Z,34.40
2019-03-02T05:40:19.042Z,31.90
2019-03-02T05:41:19.212Z,34.80
2019-03-02T05:42:19.385Z,35.80
2019-03-02T05:43:19.555Z,33.60
2019-03-02T05:44:19.731Z,30.10
2019-03-02T05:45:20.452Z,33.80
2019-03-02T05:46:21.962Z,33.10
2019-03-02T05:47:20.252Z,31.60
2019-03-02T05:48:22.386Z,30.70
2019-03-02T05:49:20.598Z,33.90
2019-03-02T05:50:20.767Z,31.60
2019-03-02T05:51:20.942Z,31.10
2019-03-02T05:52:21.119Z,33.30
2019-03-02T05:53:21.289Z,29.70
2019-03-02T05:54:21.471Z,31.90
2019-03-02T05:55:21.637Z,34.70
2019-03-02T05:56:21.817Z,33.00
2019-03-02T05:57:21.982Z,31.20
2019-03-02T05:58:22.155Z,32.00
2019-03-02T05:59:22.875Z,28.60
2019-03-02T06:00:22.505Z,30.70
2019-03-02T06:01:22.690Z,35.10
2019-03-02T06:02:22.852Z,31.60
2019-03-02T06:03:23.030Z,31.40
2019-03-02T06:04:23.223Z,30.00
2019-03-02T06:05:23.391Z,31.30
2019-03-02T06:06:23.562Z,31.80
2019-03-02T06:07:23.735Z,32.80
2019-03-02T06:08:23.903Z,30.90
2019-03-02T06:09:24.078Z,31.80
2019-03-02T06:10:25.370Z,32.60
2019-03-02T06:11:24.425Z,32.70
2019-03-02T06:12:24.600Z,33.90
2019-03-02T06:13:28.205Z,34.00
2019-03-02T06:14:26.679Z,35.50
2019-03-02T06:15:25.117Z,35.80
2019-03-02T06:16:25.306Z,35.10
2019-03-02T06:17:25.464Z,34.60
2019-03-02T06:18:25.639Z,35.50
2019-03-02T06:19:25.823Z,34.90
2019-03-02T06:20:25.984Z,36.30
2019-03-02T06:21:26.163Z,39.40
2019-03-02T06:22:26.332Z,38.50
2019-03-02T06:23:26.737Z,38.70
2019-03-02T06:24:26.664Z,38.10
2019-03-02T06:25:26.837Z,39.30
2019-03-02T06:26:27.010Z,40.30
2019-03-02T06:27:27.185Z,38.10
2019-03-02T06:28:27.352Z,37.80
2019-03-02T06:29:29.487Z,38.40
2019-03-02T06:30:27.702Z,41.20
2019-03-02T06:31:27.880Z,38.70
2019-03-02T06:32:30.232Z,38.70
2019-03-02T06:33:28.221Z,41.70
2019-03-02T06:34:28.396Z,40.90
2019-03-02T06:35:29.116Z,40.90
2019-03-02T06:36:28.742Z,41.80
2019-03-02T06:37:28.917Z,45.00
2019-03-02T06:38:32.156Z,43.20
2019-03-02T06:39:29.266Z,44.40
2019-03-02T06:40:29.441Z,42.80
2019-03-02T06:41:29.822Z,45.00
2019-03-02T06:42:29.790Z,45.10
2019-03-02T06:43:29.964Z,44.00
2019-03-02T06:44:30.790Z,44.00
2019-03-02T06:45:30.332Z,45.60
2019-03-02T06:46:30.488Z,47.30
2019-03-02T06:47:33.396Z,45.40
2019-03-02T06:48:30.832Z,43.70
2019-03-02T06:49:31.002Z,44.40
2019-03-02T06:50:31.782Z,47.90
2019-03-02T06:51:31.349Z,45.20
2019-03-02T06:52:31.521Z,48.20
2019-03-02T06:53:33.982Z,47.20
2019-03-02T06:54:31.867Z,47.20
2019-03-02T06:55:32.049Z,47.50
2019-03-02T06:56:32.627Z,45.90
2019-03-02T06:57:32.390Z,45.70
2019-03-02T06:58:32.562Z,47.40
2019-03-02T06:59:35.858Z,47.50
2019-03-02T07:00:32.910Z,46.00
2019-03-02T07:01:33.096Z,45.80
2019-03-02T07:02:35.082Z,48.80
2019-03-02T07:03:33.438Z,49.00
2019-03-02T07:04:33.613Z,46.50
2019-03-02T07:05:36.274Z,53.50
2019-03-02T07:06:33.953Z,51.20
2019-03-02T07:07:34.118Z,49.00
2019-03-02T07:08:36.311Z,53.20
2019-03-02T07:09:34.470Z,51.30
2019-03-02T07:10:34.641Z,51.70
2019-03-02T07:11:34.949Z,50.20
2019-03-02T07:12:34.986Z,52.70
2019-03-02T07:13:35.158Z,55.10
2019-03-02T07:14:35.337Z,53.30
2019-03-02T07:15:35.526Z,59.20
2019-03-02T07:16:35.683Z,55.40
2019-03-02T07:17:35.860Z,55.60
2019-03-02T07:18:38.971Z,54.20
2019-03-02T07:19:36.201Z,55.20
2019-03-02T07:20:36.366Z,56.60
2019-03-02T07:21:37.641Z,58.60
2019-03-02T07:22:36.731Z,57.50
2019-03-02T07:23:36.883Z,58.00
2019-03-02T07:24:38.914Z,57.60
2019-03-02T07:25:40.365Z,57.60
2019-03-02T07:26:37.400Z,59.70
2019-03-02T07:27:37.560Z,57.70
2019-03-02T07:28:38.796Z,59.40
2019-03-02T07:29:37.884Z,61.20
2019-03-02T07:30:38.053Z,59.90
2019-03-02T07:31:38.231Z,58.30
2019-03-02T07:32:38.401Z,64.10
2019-03-02T07:33:38.576Z,64.00
2019-03-02T07:34:40.730Z,61.80
2019-03-02T07:35:38.926Z,60.10
2019-03-02T07:36:39.085Z,63.40
2019-03-02T07:37:40.661Z,64.10
2019-03-02T07:38:39.412Z,66.70
2019-03-02T07:39:39.590Z,63.60
2019-03-02T07:40:41.182Z,63.70
2019-03-02T07:41:39.934Z,65.30
2019-03-02T07:42:40.119Z,66.80
2019-03-02T07:43:42.186Z,63.90
2019-03-02T07:44:40.446Z,62.60
2019-03-02T07:45:40.596Z,61.70
2019-03-02T07:46:44.236Z,66.70
2019-03-02T07:47:40.964Z,61.60
2019-03-02T07:48:41.134Z,62.90
2019-03-02T07:49:41.312Z,63.10
2019-03-02T07:50:41.480Z,64.60
2019-03-02T07:51:42.382Z,64.90
2019-03-02T07:52:41.824Z,72.30
2019-03-02T07:53:41.995Z,73.00
2019-03-02T07:54:42.538Z,67.10
2019-03-02T07:55:42.342Z,66.60
2019-03-02T07:56:42.506Z,64.90
2019-03-02T07:57:43.727Z,68.60
2019-03-02T07:58:42.864Z,69.60
2019-03-02T07:59:43.011Z,61.70
2019-03-02T08:00:43.187Z,66.60
2019-03-02T08:01:43.380Z,58.60
2019-03-02T08:02:43.544Z,63.50
2019-03-02T08:03:43.709Z,60.60
2019-03-02T08:04:43.882Z,72.80
2019-03-02T08:05:46.846Z,64.20
2019-03-02T08:06:44.217Z,62.40
2019-03-02T08:07:44.393Z,59.70
2019-03-02T08:08:45.801Z,65.40
2019-03-02T08:09:44.730Z,61.30
2019-03-02T08:10:44.904Z,61.30
2019-03-02T08:11:45.539Z,60.40
2019-03-02T08:12:45.282Z,61.50
2019-03-02T08:13:45.465Z,60.50
2019-03-02T08:14:47.830Z,57.10
2019-03-02T08:15:46.542Z,61.90
2019-03-02T08:16:46.007Z,60.30
2019-03-02T08:17:49.191Z,63.00
2019-03-02T08:18:46.312Z,58.70
2019-03-02T08:19:48.410Z,59.60
2019-03-02T08:20:46.675Z,61.20
2019-03-02T08:21:46.812Z,58.50
2019-03-02T08:22:47.082Z,57.50
2019-03-02T08:23:47.156Z,55.70
2019-03-02T08:24:47.379Z,54.20
2019-03-02T08:25:47.519Z,59.10
2019-03-02T08:26:47.675Z,55.50
2019-03-02T08:27:47.882Z,56.60
2019-03-02T08:28:48.026Z,58.30
2019-03-02T08:29:48.185Z,52.10
2019-03-02T08:30:48.353Z,53.90
2019-03-02T08:31:48.501Z,53.00
2019-03-02T08:32:48.680Z,53.10
2019-03-02T08:33:48.846Z,49.20
2019-03-02T08:34:49.030Z,49.30
2019-03-02T08:35:49.139Z,50.60
2019-03-02T08:36:50.396Z,49.10
2019-03-02T08:37:49.503Z,50.60
2019-03-02T08:38:49.644Z,52.60
2019-03-02T08:39:49.807Z,53.50
2019-03-02T08:40:49.970Z,48.80
2019-03-02T08:41:50.124Z,50.90
2019-03-02T08:42:50.300Z,50.40
2019-03-02T08:43:50.434Z,51.50
2019-03-02T08:44:53.614Z,47.90
2019-03-02T08:45:50.766Z,48.90
2019-03-02T08:46:50.931Z,50.10
2019-03-02T08:47:51.090Z,48.90
2019-03-02T08:48:51.274Z,46.80
2019-03-02T08:49:51.466Z,47.30
2019-03-02T08:50:53.093Z,48.20
2019-03-02T08:51:51.759Z,48.90
2019-03-02T08:52:51.920Z,48.10
2019-03-02T08:53:52.090Z,47.40
2019-03-02T08:54:53.549Z,45.60
2019-03-02T08:55:52.453Z,47.70
2019-03-02T08:56:52.686Z,47.00
2019-03-02T08:57:54.016Z,47.50
2019-03-02T08:58:53.729Z,45.10
2019-03-02T08:59:53.162Z,45.60
2019-03-02T09:00:53.348Z,45.40
2019-03-02T09:01:54.893Z,44.30
2019-03-02T09:02:55.061Z,45.20
2019-03-02T09:03:53.806Z,43.70
2019-03-02T09:04:53.965Z,48.30
2019-03-02T09:05:55.588Z,43.80
2019-03-02T09:06:54.300Z,42.30
2019-03-02T09:07:54.495Z,42.30
2019-03-02T09:08:54.641Z,41.60
2019-03-02T09:09:54.803Z,46.10
2019-03-02T09:10:54.972Z,46.00
2019-03-02T09:11:55.796Z,45.20
2019-03-02T09:12:58.816Z,44.30
2019-03-02T09:13:55.486Z,43.10
2019-03-02T09:14:55.656Z,42.70
2019-03-02T09:15:55.827Z,39.10
2019-03-02T09:16:55.992Z,39.90
2019-03-02T09:17:57.988Z,39.20
2019-03-02T09:18:56.341Z,39.60
2019-03-02T09:19:59.612Z,37.80
2019-03-02T09:20:57.248Z,39.70
2019-03-02T09:21:56.896Z,36.30
2019-03-02T09:23:00.722Z,37.70
2019-03-02T09:23:57.238Z,38.70
2019-03-02T09:24:59.210Z,40.60
2019-03-02T09:26:01.026Z,37.50
2019-03-02T09:26:57.714Z,36.80
2019-03-02T09:27:57.890Z,37.80
2019-03-02T09:28:58.100Z,38.10
2019-03-02T09:29:58.986Z,37.50
2019-03-02T09:30:58.770Z,40.60
2019-03-02T09:31:58.540Z,40.60
2019-03-02T09:32:58.704Z,45.10
2019-03-02T09:34:01.121Z,39.70
2019-03-02T09:34:59.016Z,36.60
2019-03-02T09:35:59.188Z,34.80
2019-03-02T09:36:59.386Z,34.20
2019-03-02T09:37:59.520Z,37.10
2019-03-02T09:38:59.710Z,35.60
2019-03-02T09:39:59.863Z,37.20
2019-03-02T09:41:00.031Z,38.30
2019-03-02T09:42:01.576Z,37.10
2019-03-02T09:43:00.374Z,34.10
2019-03-02T09:44:01.713Z,36.00
2019-03-02T09:45:00.688Z,33.80
2019-03-02T09:46:00.854Z,35.90
2019-03-02T09:47:00.997Z,35.70
2019-03-02T09:48:01.177Z,34.70
2019-03-02T09:49:02.141Z,35.80
2019-03-02T09:50:01.500Z,34.60
2019-03-02T09:51:01.686Z,34.70
2019-03-02T09:52:01.905Z,33.20
2019-03-02T09:53:02.043Z,31.70
2019-03-02T09:54:02.224Z,32.70
2019-03-02T09:55:02.412Z,33.60
2019-03-02T09:56:02.578Z,34.40
2019-03-02T09:57:03.031Z,34.60
2019-03-02T09:58:02.953Z,31.90
2019-03-02T09:59:03.136Z,32.70
2019-03-02T10:00:03.311Z,30.60
2019-03-02T10:01:04.514Z,37.10
2019-03-02T10:02:03.662Z,34.50
2019-03-02T10:03:03.843Z,35.30
2019-03-02T10:04:06.123Z,36.40
2019-03-02T10:05:04.180Z,35.10
2019-03-02T10:06:04.364Z,32.10
2019-03-02T10:07:04.504Z,29.80
2019-03-02T10:08:04.647Z,28.20
2019-03-02T10:09:04.838Z,30.20
2019-03-02T10:10:04.991Z,27.50
2019-03-02T10:11:06.148Z,29.70
2019-03-02T10:12:05.295Z,28.10
2019-03-02T10:13:05.455Z,29.20
2019-03-02T10:14:05.605Z,29.70
2019-03-02T10:15:05.774Z,29.70
2019-03-02T10:16:05.946Z,28.70
2019-03-02T10:17:06.097Z,29.30
2019-03-02T10:18:06.305Z,28.00
2019-03-02T10:19:06.429Z,27.80
2019-03-02T10:20:06.680Z,28.40
2019-03-02T10:21:06.753Z,28.00
2019-03-02T10:22:06.925Z,27.80
2019-03-02T10:23:07.086Z,27.20
2019-03-02T10:24:07.262Z,27.40
2019-03-02T10:25:07.438Z,25.50
2019-03-02T10:26:08.774Z,27.90
2019-03-02T10:27:07.767Z,27.60
2019-03-02T10:28:07.933Z,26.90
2019-03-02T10:29:10.886Z,28.80
2019-03-02T10:31:08.452Z,32.80
2019-03-02T10:32:08.603Z,34.10
2019-03-02T10:33:08.778Z,29.30
2019-03-02T10:34:08.919Z,25.50
2019-03-02T10:35:09.082Z,27.50
2019-03-02T10:36:09.249Z,26.50
2019-03-02T10:37:09.407Z,29.70
2019-03-02T10:38:09.566Z,24.80
2019-03-02T10:39:09.731Z,31.40
2019-03-02T10:40:09.952Z,30.10
2019-03-02T10:41:10.058Z,26.20
2019-03-02T10:42:10.253Z,27.60
2019-03-02T10:43:10.690Z,25.70
2019-03-02T10:44:10.543Z,28.60
2019-03-02T10:45:11.188Z,27.50
2019-03-02T10:46:10.859Z,26.40
2019-03-02T10:47:11.021Z,26.30
2019-03-02T10:48:11.223Z,29.10
2019-03-02T10:49:13.151Z,24.40
2019-03-02T10:50:11.561Z,24.60
2019-03-02T10:51:11.728Z,24.90
2019-03-02T10:52:12.963Z,27.70
2019-03-02T10:53:12.064Z,27.50
2019-03-02T10:54:12.219Z,30.10
2019-03-02T10:55:13.524Z,27.50
2019-03-02T10:56:12.560Z,29.70
2019-03-02T10:57:12.729Z,32.90
2019-03-02T10:58:12.899Z,34.00
2019-03-02T10:59:15.586Z,36.20
2019-03-02T11:00:13.232Z,30.50
2019-03-02T11:01:13.449Z,33.00
2019-03-02T11:02:16.905Z,33.50
2019-03-02T11:03:13.768Z,30.10
2019-03-02T11:04:13.923Z,28.50
2019-03-02T11:05:16.720Z,26.80
2019-03-02T11:06:14.319Z,34.40
2019-03-02T11:07:14.432Z,29.00
2019-03-02T11:08:14.613Z,25.20
2019-03-02T11:09:22.223Z,29.40
2019-03-02T11:10:16.624Z,28.30
2019-03-02T11:11:15.145Z,29.20
2019-03-02T11:12:17.397Z,28.90
2019-03-02T11:13:16.008Z,26.40
2019-03-02T11:14:15.650Z,25.70
2019-03-02T11:15:15.808Z,27.80
2019-03-02T11:16:15.967Z,27.70
2019-03-02T11:17:16.136Z,26.50
2019-03-02T11:18:16.284Z,28.60
2019-03-02T11:19:16.508Z,26.70
2019-03-02T11:20:16.640Z,25.90
2019-03-02T11:21:16.836Z,27.10
2019-03-02T11:22:16.953Z,27.80
2019-03-02T11:23:19.675Z,25.70
2019-03-02T11:24:17.290Z,27.00
2019-03-02T11:25:17.455Z,25.40
2019-03-02T11:26:17.643Z,28.20
2019-03-02T11:27:17.807Z,27.90
2019-03-02T11:28:17.963Z,28.10
2019-03-02T11:29:21.155Z,28.70
2019-03-02T11:30:18.642Z,29.70
2019-03-02T11:31:18.520Z,28.70
2019-03-02T11:32:20.298Z,29.70
2019-03-02T11:33:18.780Z,29.40
2019-03-02T11:34:18.960Z,30.00
2019-03-02T11:35:19.480Z,28.10
2019-03-02T11:36:19.317Z,27.40
2019-03-02T11:37:21.959Z,30.20
2019-03-02T11:38:19.734Z,34.20
2019-03-02T11:39:19.765Z,30.30
2019-03-02T11:40:19.937Z,30.40
2019-03-02T11:41:21.022Z,30.50
2019-03-02T11:42:20.365Z,31.40
2019-03-02T11:43:20.393Z,30.30
2019-03-02T11:44:20.554Z,30.90
2019-03-02T11:45:20.718Z,31.50
2019-03-02T11:46:20.882Z,29.60
2019-03-02T11:47:21.079Z,36.10
2019-03-02T11:48:21.214Z,30.90
2019-03-02T11:49:30.017Z,29.30
2019-03-02T11:50:21.552Z,33.00
2019-03-02T11:51:24.014Z,32.80
2019-03-02T11:52:21.902Z,32.40
2019-03-02T11:53:23.995Z,32.70
2019-03-02T11:54:25.140Z,30.40
2019-03-02T11:55:22.382Z,32.10
2019-03-02T11:56:26.837Z,31.50
2019-03-02T11:57:22.751Z,32.40
2019-03-02T11:58:22.902Z,31.00
2019-03-02T11:59:23.093Z,32.50
2019-03-02T12:00:23.258Z,31.40
2019-03-02T12:01:23.423Z,34.40
2019-03-02T12:02:24.037Z,30.90
2019-03-02T12:03:23.762Z,31.00
2019-03-02T12:04:23.943Z,34.00
2019-03-02T12:05:25.040Z,31.00
2019-03-02T12:06:24.281Z,33.30
2019-03-02T12:07:24.419Z,33.80
2019-03-02T12:08:24.581Z,34.10
2019-03-02T12:09:24.740Z,35.40
2019-03-02T12:10:24.912Z,35.60
2019-03-02T12:11:25.084Z,35.60
2019-03-02T12:12:25.242Z,35.10
2019-03-02T12:13:27.706Z,31.60
2019-03-02T12:14:25.583Z,37.70
2019-03-02T12:15:25.766Z,34.60
2019-03-02T12:16:26.525Z,35.90
2019-03-02T12:17:26.100Z,34.40
2019-03-02T12:18:26.254Z,33.90
2019-03-02T12:19:29.667Z,33.40
2019-03-02T12:20:26.569Z,36.10
2019-03-02T12:21:26.728Z,38.10
2019-03-02T12:22:30.382Z,35.80
2019-03-02T12:23:27.072Z,38.40
2019-03-02T12:24:27.230Z,39.30
2019-03-02T12:25:31.105Z,39.00
2019-03-02T12:26:27.574Z,35.70
2019-03-02T12:27:27.729Z,33.50
2019-03-02T12:28:27.899Z,35.00
2019-03-02T12:29:28.100Z,37.00
2019-03-02T12:30:28.278Z,34.50
2019-03-02T12:31:31.926Z,34.90
2019-03-02T12:32:28.589Z,36.10
2019-03-02T12:33:28.757Z,35.20
2019-03-02T12:34:30.966Z,36.70
2019-03-02T12:35:29.123Z,36.30
2019-03-02T12:36:29.245Z,35.90
2019-03-02T12:37:32.984Z,32.80
2019-03-02T12:38:29.578Z,36.50
2019-03-02T12:39:29.739Z,37.30
2019-03-02T12:40:29.913Z,37.60
2019-03-02T12:41:30.134Z,42.60
2019-03-02T12:42:31.551Z,38.50
2019-03-02T12:43:30.403Z,40.80
2019-03-02T12:44:30.558Z,41.80
2019-03-02T12:45:33.678Z,42.30
2019-03-02T12:46:30.908Z,39.40
2019-03-02T12:47:33.346Z,38.80
2019-03-02T12:48:31.211Z,34.00
2019-03-02T12:49:31.403Z,37.20
2019-03-02T12:50:31.545Z,38.30
2019-03-02T12:51:35.331Z,38.10
2019-03-02T12:52:31.864Z,38.80
2019-03-02T12:53:32.065Z,36.10
2019-03-02T12:54:32.201Z,36.50
2019-03-02T12:55:32.376Z,40.30